Time;durP1;ratioP1;P1;durP2;ratioP2;P2;SDS_P1;SDS_P2;PMS_P1;PMS_P2;Temp;Humidity;BMP_temperature;BMP_pressure;BME280_temperature;BME280_humidity;BME280_pressure;Samples;Min_cycle;Max_cycle;Signal;HPM_P1;HPM_P2
2022/11/13 00:12:59;;;;;;;;;;;;;;;;;;;;;
2022/11/13 00:17:01;;;;;;;;;;;;;;;;;;;;;
2022/11/13 00:19:54;;;;;;;;;;;;;;;;;;;;;
2022/11/13 00:44:45;;;;;;;;;;;;;;;;;;;;;
2022/11/13 00:48:37;;;;;;;;;;;;;;;;;;;;;
2022/11/13 00:59:03;;;;;;;;;;;;;;;;;;;;;
2022/11/13 01:06:15;;;;;;;;;;;;;;;;;;;;;
2022/11/13 06:26:55;;;;;;;;;;;;;;;;;;;;;
2022/11/13 06:45:37;;;;;;;;;;;;;;;;;;;;;
2022/11/13 08:31:32;;;;;;;;;;;;;;;;;;;;;
2022/11/13 08:35:04;;;;;;;;;;;;;;;;;;;;;
2022/11/13 08:38:41;;;;;;;;;;;;;;;;;;;;;
2022/11/13 08:48:59;;;;;;;;;;;;;;;;;;;;;
2022/11/13 08:51:25;;;;;;;30.90;17.95;;;5.80;99.90;;;;;;6252278;23;20062;-90
2022/11/13 08:54:15;;;;;;;;;;;;;;;;;;;;;
2022/11/13 08:56:52;;;;;;;24.42;18.23;;;5.70;99.90;;;;;;6245639;23;20016;-90
2022/11/13 08:59:18;;;;;;;22.58;16.55;;;6.10;99.90;;;;;;6218141;23;20016;-90
2022/11/13 09:02:30;;;;;;;24.52;16.90;;;6.80;99.90;;;;;;6217365;23;20013;-91
2022/11/13 09:06:40;;;;;;;;;;;;;;;;;;;;;
2022/11/13 09:09:06;;;;;;;22.50;16.08;;;6.50;99.90;;;;;;6138248;23;20063;-90
2022/11/13 09:11:34;;;;;;;21.30;16.25;;;6.60;99.90;;;;;;6217419;23;20020;-90
2022/11/13 09:14:07;;;;;;;23.42;16.77;;;6.80;99.90;;;;;;6218285;23;20012;-92
2022/11/13 09:20:15;;;;;;;;;;;;;;;;;;;;;
2022/11/13 09:23:51;;;;;;;;;;;;;;;;;;;;;
2022/11/13 09:29:41;;;;;;;;;;;;;;;;;;;;;
2022/11/13 09:53:51;;;;;;;;;;;;;;;;;;;;;
2022/11/13 10:01:30;;;;;;;;;;;;;;;;;;;;;
2022/11/13 10:07:29;;;;;;;16.30;12.75;;;8.00;99.90;;;;;;6144426;22;20039;-93
2022/11/13 10:10:10;;;;;;;;;;;;;;;;;;;;;
2022/11/13 10:12:44;;;;;;;22.33;13.57;;;8.10;99.90;;;;;;6247363;23;20016;-92
2022/11/13 10:15:13;;;;;;;15.43;12.60;;;8.20;99.90;;;;;;6217455;23;20012;-91
2022/11/13 10:18:29;;;;;;;;;;;;;;;;;;;;;
2022/11/13 10:21:18;;;;;;;17.13;13.35;;;9.00;99.90;;;;;;6192475;23;20052;-95
2022/11/13 10:34:50;;;;;;;;;;;;;;;;;;;;;
2022/11/13 10:49:12;;;;;;;15.35;11.80;;;8.70;99.90;;;;;;6138355;23;20071;-91
2022/11/13 10:59:58;;;;;;;17.90;11.73;;;9.00;99.90;;;;;;6139364;23;20025;-92
2022/11/13 11:03:23;;;;;;;;;;;;;;;;;;;;;
2022/11/13 11:29:03;;;;;;;16.27;12.35;;;9.30;99.90;;;;;;6273105;22;20024;-93
2022/11/13 11:32:02;;;;;;;18.13;12.30;;;9.40;99.90;;;;;;6222224;22;20090;-95
2022/11/13 11:35:33;;;;;;;16.38;12.05;;;9.40;99.90;;;;;;6223585;22;20095;-94
2022/11/13 11:38:39;;;;;;;15.40;12.18;;;9.10;99.90;;;;;;6193049;22;20031;-96
2022/11/13 11:41:12;;;;;;;17.38;12.23;;;9.60;99.90;;;;;;6218964;23;20024;-90
2022/11/13 11:51:50;;;;;;;13.85;10.30;;;9.80;99.90;;;;;;6016076;23;20034;-91
2022/11/13 11:54:39;;;;;;;15.18;10.40;;;10.00;99.90;;;;;;6078836;23;20295;-89
2022/11/13 11:57:41;;;;;;;14.68;10.43;;;10.10;99.90;;;;;;6098404;23;20014;-87
2022/11/13 12:00:14;;;;;;;13.07;9.80;;;10.20;99.90;;;;;;6212758;23;20024;-87
2022/11/13 12:03:15;;;;;;;12.35;9.70;;;10.30;99.90;;;;;;6212293;23;20023;-88
2022/11/13 12:05:45;;;;;;;16.35;10.02;;;10.40;99.90;;;;;;6212633;23;20499;-86
2022/11/13 12:08:32;;;;;;;17.02;10.07;;;10.60;99.90;;;;;;6212878;23;20123;-87
2022/11/13 12:11:03;;;;;;;12.82;9.63;;;10.60;99.90;;;;;;6212857;23;20057;-87
2022/11/13 12:13:32;;;;;;;12.77;9.88;;;10.70;99.90;;;;;;6238617;23;20016;-88
2022/11/13 12:16:21;;;;;;;14.55;10.10;;;10.80;99.90;;;;;;6212510;23;20452;-87
2022/11/13 12:18:57;;;;;;;12.98;9.43;;;10.90;99.90;;;;;;6212362;23;20445;-87
2022/11/13 12:21:27;;;;;;;16.40;10.65;;;10.90;99.90;;;;;;6212384;23;20081;-87
2022/11/13 12:24:13;;;;;;;14.15;10.73;;;11.00;99.90;;;;;;6241500;23;20019;-88
2022/11/13 12:26:51;;;;;;;13.15;10.25;;;11.10;99.90;;;;;;6237971;23;20027;-86
2022/11/13 12:29:46;;;;;;;12.77;9.45;;;11.10;99.90;;;;;;6212789;23;20095;-88
2022/11/13 12:32:30;;;;;;;14.82;10.07;;;11.10;99.90;;;;;;6214661;23;20460;-89
2022/11/13 12:54:52;;;;;;;14.23;10.63;;;11.20;99.90;;;;;;6277010;22;20772;-94
2022/11/13 12:57:27;;;;;;;12.32;9.98;;;11.10;99.90;;;;;;6199873;22;20255;-93
2022/11/13 13:00:00;;;;;;;14.43;9.90;;;11.10;99.90;;;;;;6225764;22;20321;-94
2022/11/13 13:02:32;;;;;;;14.00;10.55;;;11.10;99.90;;;;;;6223735;22;20090;-93
2022/11/13 13:05:29;;;;;;;15.90;10.32;;;11.10;99.90;;;;;;6224046;22;20027;-92
2022/11/13 13:08:25;;;;;;;16.25;10.70;;;11.10;99.90;;;;;;6226725;22;20015;-93
2022/11/13 13:11:05;;;;;;;14.20;10.38;;;11.10;99.90;;;;;;6229538;22;20098;-91
2022/11/13 13:14:10;;;;;;;;;;;;;;;;;;;;;
2022/11/13 13:16:38;;;;;;;13.77;10.23;;;11.10;99.90;;;;;;6273618;22;20391;-94
2022/11/13 13:19:06;;;;;;;17.85;10.38;;;11.10;99.90;;;;;;6223372;22;20011;-95
2022/11/13 13:21:42;;;;;;;15.07;9.82;;;11.10;99.90;;;;;;6224195;22;20051;-95
2022/11/13 13:24:58;;;;;;;12.63;10.38;;;11.10;99.90;;;;;;6226810;22;20012;-95
2022/11/13 13:27:44;;;;;;;;;;;;;;;;;;;;;
2022/11/13 13:30:26;;;;;;;17.50;10.48;;;11.10;99.90;;;;;;6282634;22;20096;-96
2022/11/13 13:33:12;;;;;;;17.08;10.55;;;11.10;99.90;;;;;;6227470;22;20015;-95
2022/11/13 13:36:30;;;;;;;;;;;;;;;;;;;;;
2022/11/13 13:40:44;;;;;;;16.60;10.68;;;11.10;99.90;;;;;;6270995;22;20011;-95
2022/11/13 13:48:44;;;;;;;14.40;10.70;;;11.00;99.90;;;;;;6286456;22;20027;-96
2022/11/13 13:51:32;;;;;;;17.38;10.27;;;11.00;99.90;;;;;;6225523;22;20023;-96
2022/11/13 13:54:32;;;;;;;14.30;10.65;;;10.90;99.90;;;;;;6230243;22;20026;-96
2022/11/13 14:07:47;;;;;;;13.73;9.88;;;11.00;99.90;;;;;;6291701;22;20019;-96
2022/11/13 14:11:31;;;;;;;13.93;10.13;;;10.90;99.90;;;;;;6199529;22;20027;-96
2022/11/13 14:14:27;;;;;;;14.23;10.30;;;11.00;99.90;;;;;;6204906;22;20020;-96
2022/11/13 14:16:54;;;;;;;;;;;;;;;;;;;;;
2022/11/13 14:19:32;;;;;;;;;;;;;;;;;;;;;
2022/11/13 14:22:06;;;;;;;14.45;10.55;;;10.90;99.90;;;;;;6249243;22;20016;-96
2022/11/13 14:24:59;;;;;;;13.57;10.85;;;10.90;99.90;;;;;;6223480;22;20019;-96
2022/11/13 14:27:30;;;;;;;14.68;10.38;;;10.80;99.90;;;;;;6223216;22;20027;-95
2022/11/13 14:30:48;;;;;;;16.52;10.70;;;10.80;99.90;;;;;;6224098;22;20099;-96
2022/11/13 14:36:52;;;;;;;;;;;;;;;;;;;;;
2022/11/13 14:43:06;;;;;;;14.60;10.73;;;10.70;99.90;;;;;;6171821;22;20769;-96
2022/11/13 14:46:43;;;;;;;15.48;10.60;;;10.70;99.90;;;;;;6223943;22;20051;-96
2022/11/13 14:48:58;;;;;;;15.00;10.25;;;11.00;99.90;;;;;;6269958;22;20031;-96
2022/11/13 14:51:33;;;;;;;13.73;10.52;;;10.70;99.90;;;;;;6230284;22;20016;-96
2022/11/13 14:54:03;;;;;;;16.02;10.90;;;10.70;99.90;;;;;;6226698;22;20026;-96
2022/11/13 14:57:07;;;;;;;15.75;10.82;;;10.60;99.90;;;;;;6223940;22;20022;-95
2022/11/13 14:59:46;;;;;;;;;;;;;;;;;;;;;
2022/11/13 15:02:43;;;;;;;13.55;10.10;;;10.50;99.90;;;;;;6254129;22;20015;-93
2022/11/13 15:05:21;;;;;;;16.95;10.05;;;10.40;99.90;;;;;;6271365;22;20024;-96
2022/11/13 15:08:18;;;;;;;18.05;10.68;;;10.10;99.90;;;;;;6250756;22;20031;-94
2022/11/13 15:11:02;;;;;;;;;;;;;;;;;;;;;
2022/11/13 15:13:40;;;;;;;16.50;10.98;;;10.20;99.90;;;;;;6207621;22;20016;-96
2022/11/13 15:16:45;;;;;;;;;;;;;;;;;;;;;
2022/11/13 15:19:47;;;;;;;13.85;10.93;;;9.60;99.90;;;;;;6249902;22;20016;-96
2022/11/13 15:22:25;;;;;;;;;;;;;;;;;;;;;
2022/11/13 15:25:10;;;;;;;;;;;;;;;;;;;;;
2022/11/13 15:27:36;;;;;;;15.25;10.88;;;9.60;99.90;;;;;;6259914;22;20026;-96
2022/11/13 15:30:11;;;;;;;17.48;11.23;;;9.80;99.90;;;;;;6263196;22;20015;-96
2022/11/13 15:32:40;;;;;;;12.85;10.32;;;9.60;99.90;;;;;;6229555;22;20325;-96
2022/11/13 15:35:14;;;;;;;17.33;10.82;;;9.40;99.90;;;;;;6223257;22;20405;-96
2022/11/13 15:37:56;;;;;;;;;;;;;;;;;;;;;
2022/11/13 15:40:33;;;;;;;17.92;11.07;;;9.40;99.90;;;;;;6253261;22;20077;-95
2022/11/13 15:44:30;;;;;;;13.30;10.55;;;9.30;99.90;;;;;;6229571;22;20046;-96
2022/11/13 15:47:28;;;;;;;;;;;;;;;;;;;;;
2022/11/13 17:21:02;;;;;;;;;;;;;;;;;;;;;
2022/11/13 17:37:09;;;;;;;;;;;;;;;;;;;;;
2022/11/13 18:34:20;;;;;;;;;;;;;;;;;;;;;
2022/11/13 18:46:03;;;;;;;;;;;;;;;;;;;;;
2022/11/13 18:52:49;;;;;;;;;;;;;;;;;;;;;
2022/11/13 19:03:12;;;;;;;;;;;;;;;;;;;;;
2022/11/13 19:18:22;;;;;;;;;;;;;;;;;;;;;
2022/11/13 19:49:05;;;;;;;27.58;17.75;;;5.80;99.90;;;;;;6049353;23;20024;-94
2022/11/13 20:15:00;;;;;;;;;;;;;;;;;;;;;
2022/11/13 20:18:14;;;;;;;;;;;;;;;;;;;;;
2022/11/13 21:06:29;;;;;;;;;;;;;;;;;;;;;
2022/11/13 21:09:04;;;;;;;39.88;25.50;;;5.60;99.90;;;;;;6331510;22;20015;-93
2022/11/13 21:11:35;;;;;;;38.42;26.65;;;5.70;99.90;;;;;;6306094;22;20038;-94
2022/11/13 21:14:10;;;;;;;41.38;27.67;;;5.70;99.90;;;;;;6305989;22;20454;-94
2022/11/13 21:16:55;;;;;;;45.58;30.42;;;5.70;99.90;;;;;;6306272;22;20022;-93
2022/11/13 21:19:21;;;;;;;48.17;30.67;;;5.60;99.90;;;;;;6305901;22;20019;-92
2022/11/13 21:21:47;;;;;;;48.28;30.38;;;5.60;99.90;;;;;;6306051;22;20069;-93
2022/11/13 21:24:13;;;;;;;48.35;31.40;;;6.70;99.90;;;;;;6305586;22;20354;-92
2022/11/13 21:26:39;;;;;;;48.70;31.55;;;5.70;99.90;;;;;;6303925;22;20037;-92
2022/11/13 21:29:07;;;;;;;46.55;30.10;;;5.70;99.90;;;;;;6305804;22;20418;-92
2022/11/13 21:31:32;;;;;;;46.25;31.27;;;5.70;99.90;;;;;;6304265;22;20130;-92
2022/11/13 21:33:59;;;;;;;47.50;28.95;;;5.70;99.90;;;;;;6304695;22;20057;-93
2022/11/13 21:36:31;;;;;;;48.80;28.05;;;5.70;99.90;;;;;;6305200;22;20074;-93
2022/11/13 21:39:00;;;;;;;52.45;29.17;;;6.00;99.90;;;;;;6305884;22;20069;-92
2022/11/13 21:42:23;;;;;;;47.30;27.58;;;5.80;99.90;;;;;;6305963;22;20395;-95
2022/11/13 21:44:43;;;;;;;50.67;28.55;;;5.70;99.90;;;;;;6322954;22;20046;-89
2022/11/13 21:47:45;;;;;;;;;;;;;;;;;;;;;
2022/11/13 21:50:56;;;;;;;55.70;27.73;;;6.30;99.90;;;;;;6332897;22;20022;-90
2022/11/13 21:54:18;;;;;;;;;;;;;;;;;;;;;
2022/11/13 21:57:19;;;;;;;;;;;;;;;;;;;;;
2022/11/13 22:00:39;;;;;;;;;;;;;;;;;;;;;
2022/11/13 22:13:44;;;;;;;;;;;;;;;;;;;;;
2022/11/13 22:20:47;;;;;;;76.22;35.40;;;5.80;99.90;;;;;;6292244;22;20019;-90
2022/11/13 22:27:18;;;;;;;83.68;36.50;;;6.50;99.90;;;;;;6209941;22;20386;-91
2022/11/13 22:33:59;;;;;;;;;;;;;;;;;;;;;
2022/11/13 22:36:24;;;;;;;;;;;;;;;;;;;;;
2022/11/13 22:39:24;;;;;;;;;;;;;;;;;;;;;
2022/11/13 22:42:32;;;;;;;;;;;;;;;;;;;;;
2022/11/13 22:49:10;;;;;;;82.30;38.25;;;6.10;99.90;;;;;;6189003;22;20342;-91
2022/11/13 22:54:44;;;;;;;75.72;38.33;;;6.20;99.90;;;;;;6226150;22;20025;-91
2022/11/13 22:57:42;;;;;;;;;;;;;;;;;;;;;
2022/11/13 23:00:26;;;;;;;;;;;6.20;99.90;;;;;;6274622;22;20025;-90
2022/11/13 23:03:04;;;;;;;;;;;;;;;;;;;;;
2022/11/13 23:06:12;;;;;;;;;;;;;;;;;;;;;
2022/11/13 23:08:41;;;;;;;;;;;;;;;;;;;;;
2022/11/13 23:11:28;;;;;;;75.05;38.65;;;6.20;99.90;;;;;;6333308;22;20513;-90
2022/11/13 23:14:24;;;;;;;78.63;39.42;;;6.30;99.90;;;;;;6307322;22;20016;-90
2022/11/13 23:17:21;;;;;;;72.95;37.72;;;6.30;99.90;;;;;;6305810;22;20023;-90
2022/11/13 23:23:38;;;;;;;;;;;;;;;;;;;;;
2022/11/13 23:26:14;;;;;;;63.50;34.25;;;6.00;99.90;;;;;;6333311;22;20140;-90
2022/11/13 23:29:06;;;;;;;62.65;34.00;;;7.40;99.90;;;;;;6306941;22;20015;-90
2022/11/13 23:31:38;;;;;;;56.67;31.48;;;6.30;99.90;;;;;;6331779;22;20030;-89
2022/11/13 23:34:31;;;;;;;56.70;30.15;;;6.60;99.90;;;;;;6306475;22;20018;-91
2022/11/13 23:37:18;;;;;;;50.05;29.45;;;6.40;99.90;;;;;;6332218;22;20511;-90
2022/11/13 23:42:48;;;;;;;;;;;;;;;;;;;;;
2022/11/13 23:46:06;;;;;;;;;;;;;;;;;;;;;
2022/11/13 23:48:38;;;;;;;50.20;27.48;;;6.50;99.90;;;;;;6331749;22;20033;-91
2022/11/13 23:54:25;;;;;;;47.25;27.08;;;6.30;99.90;;;;;;6267028;22;20086;-90
2022/11/13 23:57:03;;;;;;;43.08;25.10;;;6.40;99.90;;;;;;6306903;22;20015;-91
2022/11/13 23:59:31;;;;;;;46.53;26.17;;;7.60;99.90;;;;;;6333762;22;20015;-91
